Flight Track Log - Related Links

Times and Time Zones

All times are in EDT time to prevent confusion due to time zone crossing. See the DAL4074 flight status page for this flight to view local times or setup timezone preferences in your user account.

Time Position Orientation Groundspeed Altitude Reporting Facility
EDT Latitude Longitude Course Direction KTS MPH feet Rate Location/Type
07:48PM 44.4378 -88.0761 125° Southeast 193 222 4,100  Level Minneapolis Center
07:50PM 44.3871 -87.8641 121° Southeast  Level FlightAware Approximate
07:50PM 44.3767 -87.9019 116° Southeast 243 280 10,800  Level Chicago Center
07:51PM 44.3356 -87.7596 127° Southeast  Level FlightAware Approximate
07:51PM 44.3358 -87.7906 117° Southeast 313 360 12,400  Level Chicago Center
07:52PM 44.2806 -87.6588 127° Southeast  Level FlightAware Approximate
07:53PM 44.2607 -87.6214 125° Southeast  Level FlightAware Approximate
07:53PM 44.2250 -87.5500 125° Southeast  Level FlightAware Approximate
07:53PM 44.2108 -87.5328 125° Southeast 370 426 17,300  Level Minneapolis Center
07:54PM 44.1494 -87.4131 126° Southeast 376 433 19,000 1,645 Climbing Minneapolis Center
07:55PM 44.0844 -87.2894 126° Southeast 389 448 20,700 988 Climbing Minneapolis Center
07:58PM 44.0093 -87.1518 125° Southeast  Level FlightAware Approximate
07:58PM 43.8831 -86.9119 125° Southeast 420 483 23,000  Level Chicago Center
07:59PM 43.8692 -86.8842 125° Southeast 422 486 23,000  Level Minneapolis Center
08:00PM 43.7414 -86.6447 126° Southeast 431 496 23,000  Level Chicago Center
08:01PM 43.7122 -86.5931 128° Southeast 430 495 23,000  Level Minneapolis Center
08:02PM 43.6522 -86.4806 126° Southeast 374 430 23,000  Level Minneapolis Center
08:03PM 43.5508 -86.2911 126° Southeast 341 392 23,000  Level Chicago Center
08:04PM 43.4928 -86.1847 127° Southeast 345 397 23,000  Level Chicago Center
08:07PM 43.3803 -85.9589 124° Southeast 371 427 23,000  Level Chicago Center
08:08PM 43.3531 -85.8075 104° East 403 464 23,000  Level Chicago Center
08:10PM 43.2753 -85.3858 104° East 403 464 23,000  Level Cleveland Center
08:11PM 43.2717 -85.3606 101° East 386 444 23,000  Level Chicago Center
08:11PM 43.2514 -85.2556 105° East 377 434 23,000  Level Cleveland Center
08:13PM 43.2050 -85.0042 104° East 342 394 23,000  Level Cleveland Center
08:14PM 43.2036 -84.8758 91° East 334 384 23,000  Level Cleveland Center
08:15PM 43.2517 -84.7594 60° Northeast 323 372 23,000 -314 Level Cleveland Center
08:17PM 43.2642 -84.5853 84° East 351 404 22,200 -800 Descending Chicago Center
08:18PM 43.2228 -84.3869 106° East 328 377 20,600 -1,194 Descending Cleveland Center
08:20PM 43.1297 -84.2333 130° Southeast 334 384 18,500 -1,300 Descending Chicago Center
08:20PM 43.1039 -84.1947 132° Southeast 321 369 18,000 -1,333 Descending Cleveland Center
08:21PM 43.0506 -84.1064 130° Southeast 321 369 16,700 -1,237 Descending Cleveland Center
08:22PM 42.9869 -83.9950 128° Southeast 307 353 15,300 -1,158 Descending Cleveland Center
08:23PM 42.9494 -83.9275 127° Southeast 310 357 14,500 -1,086 Descending Cleveland Center
08:24PM 42.8936 -83.8367 130° Southeast 307 353 13,400 -1,122 Descending Cleveland Center
08:25PM 42.8439 -83.7519 129° Southeast 298 343 12,200 -677 Descending Cleveland Center
08:26PM 42.7664 -83.6942 151° Southeast 299 344 12,000 -98 Descending Cleveland Center
08:27PM 42.6925 -83.6511 157° South 295 339 12,000  Level Cleveland Center
08:27PM 42.6925 -83.6511 157° South 288 331 12,000  Level Cleveland Center
08:28PM 42.6142 -83.6078 158° South 295 339 12,000  Level Cleveland Center
08:30PM 42.5139 -83.5319 160° South  Level FlightAware Approximate
08:30PM 42.4706 -83.5219 160° South 289 333 12,000  Level Cleveland Center
08:31PM 42.4050 -83.4825 156° South 289 333 12,000 -231 Level Cleveland Center
08:32PM 42.3317 -83.4033 141° Southeast 261 300 11,500 -458 Descending Cleveland Center
08:33PM 42.2856 -83.3339 132° Southeast 235 270 11,000 -316 Descending Cleveland Center
08:35PM 42.2124 -83.3534 166° South  Level Estimated
08:35PM 42.1936 -83.2486 166° South 231 266 10,600  Level Cleveland Center
08:37PM 42.2000 -83.3500 281° West  Level FlightAware Approximate
08:37PM 42.0736 -83.3050 281° West 232 267 7,600  Level Cleveland Center
08:38PM 42.0183 -83.3475 210° Southwest 226 260 6,100 -1,475 Descending Cleveland Center

Login

Don't have an account? Register now (free) for customized features, flight alerts, and more!